sensor_id;sensor_type;location;lat;lon;timestamp;P1;durP1;ratioP1;P2;durP2;ratioP2
57593;SDS011;43423;46.510;6.686;2023-03-01T00:01:05;31.15;;;14.30;;
57593;SDS011;43423;46.510;6.686;2023-03-01T00:03:33;35.33;;;15.05;;
57593;SDS011;43423;46.510;6.686;2023-03-01T00:06:00;33.40;;;15.18;;
57593;SDS011;43423;46.510;6.686;2023-03-01T00:08:26;31.70;;;15.30;;
57593;SDS011;43423;46.510;6.686;2023-03-01T00:10:59;35.38;;;15.95;;
57593;SDS011;43423;46.510;6.686;2023-03-01T00:13:27;40.08;;;15.00;;
57593;SDS011;43423;46.510;6.686;2023-03-01T00:15:52;35.88;;;15.82;;
57593;SDS011;43423;46.510;6.686;2023-03-01T00:18:18;34.22;;;15.30;;
57593;SDS011;43423;46.510;6.686;2023-03-01T00:20:53;33.22;;;15.63;;
57593;SDS011;43423;46.510;6.686;2023-03-01T00:23:21;39.67;;;15.30;;
57593;SDS011;43423;46.510;6.686;2023-03-01T00:25:47;33.95;;;15.68;;
57593;SDS011;43423;46.510;6.686;2023-03-01T00:28:14;38.20;;;15.85;;
57593;SDS011;43423;46.510;6.686;2023-03-01T00:30:40;32.00;;;15.43;;
57593;SDS011;43423;46.510;6.686;2023-03-01T00:33:06;36.83;;;15.98;;
57593;SDS011;43423;46.510;6.686;2023-03-01T00:35:32;37.15;;;15.10;;
57593;SDS011;43423;46.510;6.686;2023-03-01T00:37:58;31.50;;;13.50;;
57593;SDS011;43423;46.510;6.686;2023-03-01T00:40:24;36.90;;;16.27;;
57593;SDS011;43423;46.510;6.686;2023-03-01T00:42:50;33.92;;;15.82;;
57593;SDS011;43423;46.510;6.686;2023-03-01T00:45:15;33.50;;;15.30;;
57593;SDS011;43423;46.510;6.686;2023-03-01T00:47:42;36.47;;;15.75;;
57593;SDS011;43423;46.510;6.686;2023-03-01T00:50:08;41.58;;;16.52;;
57593;SDS011;43423;46.510;6.686;2023-03-01T00:52:35;33.00;;;15.32;;
57593;SDS011;43423;46.510;6.686;2023-03-01T00:55:00;36.17;;;16.67;;
57593;SDS011;43423;46.510;6.686;2023-03-01T00:57:26;32.97;;;15.57;;
57593;SDS011;43423;46.510;6.686;2023-03-01T00:59:51;36.08;;;16.63;;
57593;SDS011;43423;46.510;6.686;2023-03-01T01:02:20;36.72;;;17.85;;
57593;SDS011;43423;46.510;6.686;2023-03-01T01:04:46;38.50;;;16.77;;
57593;SDS011;43423;46.510;6.686;2023-03-01T01:07:13;36.33;;;16.75;;
57593;SDS011;43423;46.510;6.686;2023-03-01T01:09:38;38.85;;;16.13;;
57593;SDS011;43423;46.510;6.686;2023-03-01T01:12:04;37.45;;;16.45;;
57593;SDS011;43423;46.510;6.686;2023-03-01T01:14:30;35.50;;;16.33;;
57593;SDS011;43423;46.510;6.686;2023-03-01T01:16:56;41.33;;;18.02;;
57593;SDS011;43423;46.510;6.686;2023-03-01T01:19:22;36.38;;;15.98;;
57593;SDS011;43423;46.510;6.686;2023-03-01T01:21:48;39.05;;;17.65;;
57593;SDS011;43423;46.510;6.686;2023-03-01T01:24:14;37.90;;;17.85;;
57593;SDS011;43423;46.510;6.686;2023-03-01T01:26:41;36.65;;;16.48;;
57593;SDS011;43423;46.510;6.686;2023-03-01T01:29:07;31.08;;;15.98;;
57593;SDS011;43423;46.510;6.686;2023-03-01T01:31:34;36.50;;;16.92;;
57593;SDS011;43423;46.510;6.686;2023-03-01T01:34:01;37.30;;;18.25;;
57593;SDS011;43423;46.510;6.686;2023-03-01T01:36:28;38.85;;;16.13;;
57593;SDS011;43423;46.510;6.686;2023-03-01T01:38:54;37.47;;;16.27;;
57593;SDS011;43423;46.510;6.686;2023-03-01T01:41:20;37.45;;;15.95;;
57593;SDS011;43423;46.510;6.686;2023-03-01T01:43:48;38.50;;;16.75;;
57593;SDS011;43423;46.510;6.686;2023-03-01T01:46:34;42.17;;;16.67;;
57593;SDS011;43423;46.510;6.686;2023-03-01T01:49:06;35.20;;;16.42;;
57593;SDS011;43423;46.510;6.686;2023-03-01T01:51:39;39.88;;;17.20;;
57593;SDS011;43423;46.510;6.686;2023-03-01T01:54:50;35.60;;;17.48;;
57593;SDS011;43423;46.510;6.686;2023-03-01T01:57:02;32.60;;;16.63;;
57593;SDS011;43423;46.510;6.686;2023-03-01T01:59:31;37.50;;;16.70;;
57593;SDS011;43423;46.510;6.686;2023-03-01T02:01:59;39.72;;;17.73;;
57593;SDS011;43423;46.510;6.686;2023-03-01T02:04:26;37.55;;;17.10;;
57593;SDS011;43423;46.510;6.686;2023-03-01T02:07:15;32.25;;;15.68;;
57593;SDS011;43423;46.510;6.686;2023-03-01T02:09:42;37.88;;;17.67;;
57593;SDS011;43423;46.510;6.686;2023-03-01T02:12:15;39.80;;;16.67;;
57593;SDS011;43423;46.510;6.686;2023-03-01T02:14:42;33.50;;;16.05;;
57593;SDS011;43423;46.510;6.686;2023-03-01T02:17:09;41.38;;;17.27;;
57593;SDS011;43423;46.510;6.686;2023-03-01T02:19:39;35.05;;;17.20;;
57593;SDS011;43423;46.510;6.686;2023-03-01T02:22:25;37.08;;;16.83;;
57593;SDS011;43423;46.510;6.686;2023-03-01T02:25:12;41.67;;;17.50;;
57593;SDS011;43423;46.510;6.686;2023-03-01T02:30:27;37.58;;;16.38;;
57593;SDS011;43423;46.510;6.686;2023-03-01T02:32:55;44.92;;;18.13;;
57593;SDS011;43423;46.510;6.686;2023-03-01T02:35:28;37.70;;;16.50;;
57593;SDS011;43423;46.510;6.686;2023-03-01T02:37:58;39.50;;;18.67;;
57593;SDS011;43423;46.510;6.686;2023-03-01T02:40:25;41.13;;;16.85;;
57593;SDS011;43423;46.510;6.686;2023-03-01T02:42:55;42.85;;;17.20;;
57593;SDS011;43423;46.510;6.686;2023-03-01T02:45:23;38.55;;;17.38;;
57593;SDS011;43423;46.510;6.686;2023-03-01T02:47:49;41.38;;;17.75;;
57593;SDS011;43423;46.510;6.686;2023-03-01T02:52:45;38.42;;;17.15;;
57593;SDS011;43423;46.510;6.686;2023-03-01T02:55:21;36.78;;;16.88;;
57593;SDS011;43423;46.510;6.686;2023-03-01T02:57:46;38.33;;;18.23;;
57593;SDS011;43423;46.510;6.686;2023-03-01T03:00:19;35.90;;;15.90;;
57593;SDS011;43423;46.510;6.686;2023-03-01T03:02:52;40.33;;;16.73;;
57593;SDS011;43423;46.510;6.686;2023-03-01T03:05:23;36.63;;;16.47;;
57593;SDS011;43423;46.510;6.686;2023-03-01T03:07:51;35.95;;;16.23;;
57593;SDS011;43423;46.510;6.686;2023-03-01T03:10:19;36.97;;;16.15;;
57593;SDS011;43423;46.510;6.686;2023-03-01T03:12:51;37.45;;;16.25;;
57593;SDS011;43423;46.510;6.686;2023-03-01T03:15:28;34.22;;;15.63;;
57593;SDS011;43423;46.510;6.686;2023-03-01T03:17:55;39.40;;;17.63;;
57593;SDS011;43423;46.510;6.686;2023-03-01T03:20:22;35.50;;;16.33;;
57593;SDS011;43423;46.510;6.686;2023-03-01T03:22:51;38.40;;;16.80;;
57593;SDS011;43423;46.510;6.686;2023-03-01T03:25:18;36.88;;;16.58;;
57593;SDS011;43423;46.510;6.686;2023-03-01T03:27:45;38.85;;;15.85;;
57593;SDS011;43423;46.510;6.686;2023-03-01T03:30:13;39.22;;;16.58;;
57593;SDS011;43423;46.510;6.686;2023-03-01T03:35:21;37.05;;;16.20;;
57593;SDS011;43423;46.510;6.686;2023-03-01T03:37:50;37.03;;;16.00;;
57593;SDS011;43423;46.510;6.686;2023-03-01T03:40:35;35.60;;;16.85;;
57593;SDS011;43423;46.510;6.686;2023-03-01T03:43:03;34.60;;;15.23;;
57593;SDS011;43423;46.510;6.686;2023-03-01T03:45:30;35.97;;;16.25;;
57593;SDS011;43423;46.510;6.686;2023-03-01T03:48:02;36.78;;;16.90;;
57593;SDS011;43423;46.510;6.686;2023-03-01T03:50:29;39.42;;;16.23;;
57593;SDS011;43423;46.510;6.686;2023-03-01T03:52:55;36.03;;;16.05;;
57593;SDS011;43423;46.510;6.686;2023-03-01T03:55:21;37.78;;;15.27;;
57593;SDS011;43423;46.510;6.686;2023-03-01T03:57:47;38.90;;;15.80;;
57593;SDS011;43423;46.510;6.686;2023-03-01T04:00:20;36.95;;;16.45;;
57593;SDS011;43423;46.510;6.686;2023-03-01T04:02:47;35.10;;;14.38;;
57593;SDS011;43423;46.510;6.686;2023-03-01T04:05:15;37.45;;;17.10;;
57593;SDS011;43423;46.510;6.686;2023-03-01T04:07:42;36.28;;;16.17;;
57593;SDS011;43423;46.510;6.686;2023-03-01T04:10:13;40.05;;;17.10;;
57593;SDS011;43423;46.510;6.686;2023-03-01T04:12:41;37.78;;;16.27;;
57593;SDS011;43423;46.510;6.686;2023-03-01T04:15:12;32.78;;;15.00;;
57593;SDS011;43423;46.510;6.686;2023-03-01T04:17:42;39.05;;;15.25;;
57593;SDS011;43423;46.510;6.686;2023-03-01T04:20:13;36.95;;;15.27;;
57593;SDS011;43423;46.510;6.686;2023-03-01T04:22:43;41.65;;;17.15;;
57593;SDS011;43423;46.510;6.686;2023-03-01T04:25:12;36.42;;;16.52;;
57593;SDS011;43423;46.510;6.686;2023-03-01T04:27:39;40.13;;;16.95;;
57593;SDS011;43423;46.510;6.686;2023-03-01T04:30:05;36.83;;;15.75;;
57593;SDS011;43423;46.510;6.686;2023-03-01T04:32:33;40.53;;;16.33;;
57593;SDS011;43423;46.510;6.686;2023-03-01T04:34:58;37.63;;;16.70;;
57593;SDS011;43423;46.510;6.686;2023-03-01T04:37:25;36.90;;;15.65;;
57593;SDS011;43423;46.510;6.686;2023-03-01T04:39:50;35.55;;;15.43;;
57593;SDS011;43423;46.510;6.686;2023-03-01T04:42:16;33.85;;;15.23;;
57593;SDS011;43423;46.510;6.686;2023-03-01T04:44:42;37.88;;;15.73;;
57593;SDS011;43423;46.510;6.686;2023-03-01T04:47:08;36.83;;;16.42;;
57593;SDS011;43423;46.510;6.686;2023-03-01T04:49:34;36.95;;;15.50;;
57593;SDS011;43423;46.510;6.686;2023-03-01T04:52:00;39.40;;;16.23;;
57593;SDS011;43423;46.510;6.686;2023-03-01T04:54:33;35.38;;;15.10;;
57593;SDS011;43423;46.510;6.686;2023-03-01T04:57:00;39.00;;;16.02;;
57593;SDS011;43423;46.510;6.686;2023-03-01T04:59:26;39.67;;;16.10;;
57593;SDS011;43423;46.510;6.686;2023-03-01T05:01:52;40.38;;;16.33;;
57593;SDS011;43423;46.510;6.686;2023-03-01T05:04:22;32.75;;;14.10;;
57593;SDS011;43423;46.510;6.686;2023-03-01T05:06:48;34.72;;;15.48;;
57593;SDS011;43423;46.510;6.686;2023-03-01T05:09:14;36.15;;;15.38;;
57593;SDS011;43423;46.510;6.686;2023-03-01T05:11:40;35.03;;;14.63;;
57593;SDS011;43423;46.510;6.686;2023-03-01T05:14:06;37.78;;;15.68;;
57593;SDS011;43423;46.510;6.686;2023-03-01T05:16:33;34.10;;;15.15;;
57593;SDS011;43423;46.510;6.686;2023-03-01T05:18:59;43.15;;;15.63;;
57593;SDS011;43423;46.510;6.686;2023-03-01T05:21:25;35.97;;;15.38;;
57593;SDS011;43423;46.510;6.686;2023-03-01T05:23:51;35.83;;;15.38;;
57593;SDS011;43423;46.510;6.686;2023-03-01T05:26:18;35.58;;;14.52;;
57593;SDS011;43423;46.510;6.686;2023-03-01T05:28:47;39.83;;;15.30;;
57593;SDS011;43423;46.510;6.686;2023-03-01T05:31:13;40.85;;;16.00;;
57593;SDS011;43423;46.510;6.686;2023-03-01T05:33:39;36.10;;;14.60;;
57593;SDS011;43423;46.510;6.686;2023-03-01T05:36:07;37.25;;;15.90;;
57593;SDS011;43423;46.510;6.686;2023-03-01T05:38:34;37.15;;;15.82;;
57593;SDS011;43423;46.510;6.686;2023-03-01T05:41:00;42.83;;;17.67;;
57593;SDS011;43423;46.510;6.686;2023-03-01T05:43:26;40.17;;;16.35;;
57593;SDS011;43423;46.510;6.686;2023-03-01T05:45:57;38.85;;;15.43;;
57593;SDS011;43423;46.510;6.686;2023-03-01T05:48:23;37.53;;;14.85;;
57593;SDS011;43423;46.510;6.686;2023-03-01T05:50:48;41.10;;;16.00;;
57593;SDS011;43423;46.510;6.686;2023-03-01T05:53:18;37.67;;;15.18;;
57593;SDS011;43423;46.510;6.686;2023-03-01T05:55:48;35.92;;;14.82;;
57593;SDS011;43423;46.510;6.686;2023-03-01T05:58:16;39.00;;;16.00;;
57593;SDS011;43423;46.510;6.686;2023-03-01T06:00:43;39.88;;;15.23;;
57593;SDS011;43423;46.510;6.686;2023-03-01T06:03:11;37.10;;;15.93;;
57593;SDS011;43423;46.510;6.686;2023-03-01T06:05:38;42.60;;;15.90;;
57593;SDS011;43423;46.510;6.686;2023-03-01T06:08:05;37.83;;;15.55;;
57593;SDS011;43423;46.510;6.686;2023-03-01T06:10:31;39.78;;;16.27;;
57593;SDS011;43423;46.510;6.686;2023-03-01T06:12:56;40.33;;;16.02;;
57593;SDS011;43423;46.510;6.686;2023-03-01T06:15:23;35.88;;;15.07;;
57593;SDS011;43423;46.510;6.686;2023-03-01T06:17:49;40.85;;;16.80;;
57593;SDS011;43423;46.510;6.686;2023-03-01T06:20:17;37.50;;;15.43;;
57593;SDS011;43423;46.510;6.686;2023-03-01T06:22:45;40.25;;;16.45;;
57593;SDS011;43423;46.510;6.686;2023-03-01T06:25:13;34.10;;;15.90;;
57593;SDS011;43423;46.510;6.686;2023-03-01T06:27:40;40.97;;;16.30;;
57593;SDS011;43423;46.510;6.686;2023-03-01T06:30:11;39.97;;;16.85;;
57593;SDS011;43423;46.510;6.686;2023-03-01T06:32:39;38.83;;;16.23;;
57593;SDS011;43423;46.510;6.686;2023-03-01T06:35:12;39.15;;;17.00;;
57593;SDS011;43423;46.510;6.686;2023-03-01T06:37:39;44.47;;;17.67;;
57593;SDS011;43423;46.510;6.686;2023-03-01T06:40:06;45.40;;;18.42;;
57593;SDS011;43423;46.510;6.686;2023-03-01T06:42:36;41.20;;;17.08;;
57593;SDS011;43423;46.510;6.686;2023-03-01T06:45:03;40.83;;;16.98;;
57593;SDS011;43423;46.510;6.686;2023-03-01T06:47:30;42.75;;;17.13;;
57593;SDS011;43423;46.510;6.686;2023-03-01T06:49:56;48.40;;;16.45;;
57593;SDS011;43423;46.510;6.686;2023-03-01T06:52:22;39.30;;;15.25;;
57593;SDS011;43423;46.510;6.686;2023-03-01T06:54:47;46.03;;;17.52;;
57593;SDS011;43423;46.510;6.686;2023-03-01T06:57:13;39.60;;;16.35;;
57593;SDS011;43423;46.510;6.686;2023-03-01T06:59:38;45.58;;;18.65;;
57593;SDS011;43423;46.510;6.686;2023-03-01T07:02:04;35.13;;;15.82;;
57593;SDS011;43423;46.510;6.686;2023-03-01T07:04:29;41.00;;;16.35;;
57593;SDS011;43423;46.510;6.686;2023-03-01T07:06:55;43.00;;;16.17;;
57593;SDS011;43423;46.510;6.686;2023-03-01T07:09:22;38.97;;;15.00;;
57593;SDS011;43423;46.510;6.686;2023-03-01T07:11:48;42.97;;;18.00;;
57593;SDS011;43423;46.510;6.686;2023-03-01T07:14:14;50.55;;;17.92;;
57593;SDS011;43423;46.510;6.686;2023-03-01T07:16:40;47.50;;;18.73;;
57593;SDS011;43423;46.510;6.686;2023-03-01T07:19:06;48.60;;;17.92;;
57593;SDS011;43423;46.510;6.686;2023-03-01T07:21:31;46.72;;;18.42;;
57593;SDS011;43423;46.510;6.686;2023-03-01T07:23:57;44.47;;;17.15;;
57593;SDS011;43423;46.510;6.686;2023-03-01T07:26:23;41.15;;;17.17;;
57593;SDS011;43423;46.510;6.686;2023-03-01T07:28:48;40.53;;;16.52;;
57593;SDS011;43423;46.510;6.686;2023-03-01T07:31:14;43.78;;;17.52;;
57593;SDS011;43423;46.510;6.686;2023-03-01T07:33:39;44.45;;;17.10;;
57593;SDS011;43423;46.510;6.686;2023-03-01T07:36:05;38.38;;;16.55;;
57593;SDS011;43423;46.510;6.686;2023-03-01T07:38:31;40.75;;;16.25;;
57593;SDS011;43423;46.510;6.686;2023-03-01T07:40:57;41.60;;;16.83;;
57593;SDS011;43423;46.510;6.686;2023-03-01T07:43:28;42.10;;;16.08;;
57593;SDS011;43423;46.510;6.686;2023-03-01T07:45:57;42.60;;;16.52;;
57593;SDS011;43423;46.510;6.686;2023-03-01T07:48:23;48.95;;;17.50;;
57593;SDS011;43423;46.510;6.686;2023-03-01T07:50:49;43.33;;;15.80;;
57593;SDS011;43423;46.510;6.686;2023-03-01T07:53:14;43.83;;;17.20;;
57593;SDS011;43423;46.510;6.686;2023-03-01T07:55:40;48.90;;;17.65;;
57593;SDS011;43423;46.510;6.686;2023-03-01T07:58:05;42.33;;;16.20;;
57593;SDS011;43423;46.510;6.686;2023-03-01T08:00:31;45.45;;;17.67;;
57593;SDS011;43423;46.510;6.686;2023-03-01T08:02:58;40.72;;;15.77;;
57593;SDS011;43423;46.510;6.686;2023-03-01T08:05:25;48.72;;;18.75;;
57593;SDS011;43423;46.510;6.686;2023-03-01T08:07:51;40.53;;;17.25;;
57593;SDS011;43423;46.510;6.686;2023-03-01T08:10:17;38.72;;;16.38;;
57593;SDS011;43423;46.510;6.686;2023-03-01T08:12:43;40.30;;;15.73;;
57593;SDS011;43423;46.510;6.686;2023-03-01T08:15:08;43.17;;;16.85;;
57593;SDS011;43423;46.510;6.686;2023-03-01T08:17:34;38.88;;;15.70;;
57593;SDS011;43423;46.510;6.686;2023-03-01T08:20:00;41.85;;;17.65;;
57593;SDS011;43423;46.510;6.686;2023-03-01T08:22:26;38.28;;;16.17;;
57593;SDS011;43423;46.510;6.686;2023-03-01T08:24:51;45.95;;;16.67;;
57593;SDS011;43423;46.510;6.686;2023-03-01T08:27:17;39.03;;;15.88;;
57593;SDS011;43423;46.510;6.686;2023-03-01T08:29:42;38.40;;;16.48;;
57593;SDS011;43423;46.510;6.686;2023-03-01T08:32:08;37.88;;;16.40;;
57593;SDS011;43423;46.510;6.686;2023-03-01T08:34:33;40.70;;;15.77;;
57593;SDS011;43423;46.510;6.686;2023-03-01T08:37:01;42.90;;;15.27;;
57593;SDS011;43423;46.510;6.686;2023-03-01T08:39:27;41.65;;;15.82;;
57593;SDS011;43423;46.510;6.686;2023-03-01T08:41:52;41.35;;;16.38;;
57593;SDS011;43423;46.510;6.686;2023-03-01T08:44:18;46.38;;;16.40;;
57593;SDS011;43423;46.510;6.686;2023-03-01T08:46:46;42.55;;;17.02;;
57593;SDS011;43423;46.510;6.686;2023-03-01T08:49:13;40.53;;;15.57;;
57593;SDS011;43423;46.510;6.686;2023-03-01T08:51:41;36.10;;;15.35;;
57593;SDS011;43423;46.510;6.686;2023-03-01T08:54:10;43.72;;;16.60;;
57593;SDS011;43423;46.510;6.686;2023-03-01T08:56:37;41.40;;;17.67;;
57593;SDS011;43423;46.510;6.686;2023-03-01T08:59:03;44.50;;;16.08;;
57593;SDS011;43423;46.510;6.686;2023-03-01T09:01:29;42.40;;;17.00;;
57593;SDS011;43423;46.510;6.686;2023-03-01T09:03:54;40.88;;;15.30;;
57593;SDS011;43423;46.510;6.686;2023-03-01T09:06:20;43.25;;;16.00;;
57593;SDS011;43423;46.510;6.686;2023-03-01T09:08:47;39.03;;;15.25;;
57593;SDS011;43423;46.510;6.686;2023-03-01T09:11:15;38.92;;;15.60;;
57593;SDS011;43423;46.510;6.686;2023-03-01T09:13:43;44.53;;;16.58;;
57593;SDS011;43423;46.510;6.686;2023-03-01T09:16:10;39.95;;;14.93;;
57593;SDS011;43423;46.510;6.686;2023-03-01T09:18:36;39.47;;;15.13;;
57593;SDS011;43423;46.510;6.686;2023-03-01T09:21:09;37.95;;;15.15;;
57593;SDS011;43423;46.510;6.686;2023-03-01T09:23:37;40.00;;;16.15;;
57593;SDS011;43423;46.510;6.686;2023-03-01T09:26:05;38.55;;;15.70;;
57593;SDS011;43423;46.510;6.686;2023-03-01T09:28:35;40.75;;;17.23;;
57593;SDS011;43423;46.510;6.686;2023-03-01T09:31:02;40.25;;;16.70;;
57593;SDS011;43423;46.510;6.686;2023-03-01T09:33:29;42.67;;;17.17;;
57593;SDS011;43423;46.510;6.686;2023-03-01T09:35:59;42.80;;;17.88;;
57593;SDS011;43423;46.510;6.686;2023-03-01T09:38:26;40.97;;;17.57;;
57593;SDS011;43423;46.510;6.686;2023-03-01T09:40:52;41.17;;;16.70;;
57593;SDS011;43423;46.510;6.686;2023-03-01T09:46:23;41.22;;;15.55;;
57593;SDS011;43423;46.510;6.686;2023-03-01T09:48:51;44.60;;;16.98;;
57593;SDS011;43423;46.510;6.686;2023-03-01T09:51:23;46.42;;;16.17;;
57593;SDS011;43423;46.510;6.686;2023-03-01T09:53:52;45.30;;;16.75;;
57593;SDS011;43423;46.510;6.686;2023-03-01T09:56:41;41.97;;;16.73;;
57593;SDS011;43423;46.510;6.686;2023-03-01T09:59:44;35.67;;;13.60;;
57593;SDS011;43423;46.510;6.686;2023-03-01T10:08:19;43.35;;;14.77;;
57593;SDS011;43423;46.510;6.686;2023-03-01T10:10:52;39.65;;;15.25;;
57593;SDS011;43423;46.510;6.686;2023-03-01T10:13:20;40.40;;;15.50;;
57593;SDS011;43423;46.510;6.686;2023-03-01T10:15:50;38.47;;;16.33;;
57593;SDS011;43423;46.510;6.686;2023-03-01T10:18:31;39.65;;;16.13;;
57593;SDS011;43423;46.510;6.686;2023-03-01T10:20:59;40.00;;;15.32;;
57593;SDS011;43423;46.510;6.686;2023-03-01T10:23:27;39.65;;;14.88;;
57593;SDS011;43423;46.510;6.686;2023-03-01T10:26:07;36.10;;;14.35;;
57593;SDS011;43423;46.510;6.686;2023-03-01T10:28:42;39.03;;;15.80;;
57593;SDS011;43423;46.510;6.686;2023-03-01T10:31:16;37.33;;;14.60;;
57593;SDS011;43423;46.510;6.686;2023-03-01T10:33:45;42.15;;;15.93;;
57593;SDS011;43423;46.510;6.686;2023-03-01T10:36:13;39.75;;;14.32;;
57593;SDS011;43423;46.510;6.686;2023-03-01T10:38:47;42.60;;;15.48;;
57593;SDS011;43423;46.510;6.686;2023-03-01T10:41:19;36.80;;;14.70;;
57593;SDS011;43423;46.510;6.686;2023-03-01T10:43:50;34.67;;;14.63;;
57593;SDS011;43423;46.510;6.686;2023-03-01T10:46:24;33.67;;;13.50;;
57593;SDS011;43423;46.510;6.686;2023-03-01T10:51:35;36.92;;;15.02;;
57593;SDS011;43423;46.510;6.686;2023-03-01T10:54:01;36.42;;;15.23;;
57593;SDS011;43423;46.510;6.686;2023-03-01T10:56:29;34.90;;;13.18;;
57593;SDS011;43423;46.510;6.686;2023-03-01T10:59:19;32.38;;;13.85;;
57593;SDS011;43423;46.510;6.686;2023-03-01T11:03:01;41.08;;;15.30;;
57593;SDS011;43423;46.510;6.686;2023-03-01T11:04:59;36.60;;;13.95;;
57593;SDS011;43423;46.510;6.686;2023-03-01T11:07:53;36.53;;;14.88;;
57593;SDS011;43423;46.510;6.686;2023-03-01T11:10:22;33.63;;;14.32;;
57593;SDS011;43423;46.510;6.686;2023-03-01T11:12:52;36.22;;;14.48;;
57593;SDS011;43423;46.510;6.686;2023-03-01T11:15:20;37.47;;;14.20;;
57593;SDS011;43423;46.510;6.686;2023-03-01T11:17:47;33.20;;;13.88;;
57593;SDS011;43423;46.510;6.686;2023-03-01T11:22:45;33.63;;;13.80;;
57593;SDS011;43423;46.510;6.686;2023-03-01T11:25:15;37.35;;;14.63;;
57593;SDS011;43423;46.510;6.686;2023-03-01T11:27:43;37.35;;;14.57;;
57593;SDS011;43423;46.510;6.686;2023-03-01T11:33:06;36.17;;;14.57;;
57593;SDS011;43423;46.510;6.686;2023-03-01T11:35:34;32.15;;;14.25;;
57593;SDS011;43423;46.510;6.686;2023-03-01T11:40:44;34.65;;;15.20;;
57593;SDS011;43423;46.510;6.686;2023-03-01T11:43:20;37.83;;;14.90;;
57593;SDS011;43423;46.510;6.686;2023-03-01T11:46:17;36.17;;;14.98;;
57593;SDS011;43423;46.510;6.686;2023-03-01T11:48:56;39.00;;;14.13;;
57593;SDS011;43423;46.510;6.686;2023-03-01T11:54:18;35.83;;;14.95;;
57593;SDS011;43423;46.510;6.686;2023-03-01T11:56:57;42.95;;;16.15;;
57593;SDS011;43423;46.510;6.686;2023-03-01T12:08:08;35.30;;;13.88;;
57593;SDS011;43423;46.510;6.686;2023-03-01T12:10:48;40.15;;;14.55;;
57593;SDS011;43423;46.510;6.686;2023-03-01T12:13:26;31.73;;;13.82;;
57593;SDS011;43423;46.510;6.686;2023-03-01T12:16:07;37.03;;;14.55;;
57593;SDS011;43423;46.510;6.686;2023-03-01T12:18:51;37.05;;;14.98;;
57593;SDS011;43423;46.510;6.686;2023-03-01T12:30:38;38.03;;;14.20;;
57593;SDS011;43423;46.510;6.686;2023-03-01T12:33:12;41.72;;;15.35;;
57593;SDS011;43423;46.510;6.686;2023-03-01T12:35:57;44.28;;;15.77;;
57593;SDS011;43423;46.510;6.686;2023-03-01T12:49:54;37.53;;;15.18;;
57593;SDS011;43423;46.510;6.686;2023-03-01T12:55:06;39.05;;;15.80;;
57593;SDS011;43423;46.510;6.686;2023-03-01T12:57:47;41.80;;;15.98;;
57593;SDS011;43423;46.510;6.686;2023-03-01T13:00:27;40.05;;;16.75;;
57593;SDS011;43423;46.510;6.686;2023-03-01T13:03:09;38.70;;;17.02;;
57593;SDS011;43423;46.510;6.686;2023-03-01T13:11:15;42.15;;;16.33;;
57593;SDS011;43423;46.510;6.686;2023-03-01T13:13:46;39.78;;;15.95;;
57593;SDS011;43423;46.510;6.686;2023-03-01T13:16:55;42.92;;;16.02;;
57593;SDS011;43423;46.510;6.686;2023-03-01T13:21:44;40.88;;;15.18;;
57593;SDS011;43423;46.510;6.686;2023-03-01T13:29:43;37.50;;;15.40;;
57593;SDS011;43423;46.510;6.686;2023-03-01T13:32:18;43.63;;;15.45;;
57593;SDS011;43423;46.510;6.686;2023-03-01T13:35:01;42.28;;;15.68;;
57593;SDS011;43423;46.510;6.686;2023-03-01T13:37:40;40.53;;;16.20;;
57593;SDS011;43423;46.510;6.686;2023-03-01T13:42:43;45.35;;;17.48;;
57593;SDS011;43423;46.510;6.686;2023-03-01T13:48:02;43.93;;;15.47;;
57593;SDS011;43423;46.510;6.686;2023-03-01T13:50:36;41.22;;;15.13;;
57593;SDS011;43423;46.510;6.686;2023-03-01T13:53:10;40.78;;;15.25;;
57593;SDS011;43423;46.510;6.686;2023-03-01T13:55:44;39.97;;;16.20;;
57593;SDS011;43423;46.510;6.686;2023-03-01T13:58:22;44.70;;;16.50;;
57593;SDS011;43423;46.510;6.686;2023-03-01T14:01:05;39.00;;;15.93;;
57593;SDS011;43423;46.510;6.686;2023-03-01T14:03:33;39.67;;;14.50;;
57593;SDS011;43423;46.510;6.686;2023-03-01T14:06:10;42.30;;;15.82;;
57593;SDS011;43423;46.510;6.686;2023-03-01T14:08:40;46.75;;;16.88;;
57593;SDS011;43423;46.510;6.686;2023-03-01T14:19:19;42.50;;;15.68;;
57593;SDS011;43423;46.510;6.686;2023-03-01T14:22:04;40.25;;;16.75;;
57593;SDS011;43423;46.510;6.686;2023-03-01T14:24:40;41.65;;;16.00;;
57593;SDS011;43423;46.510;6.686;2023-03-01T14:27:13;48.58;;;16.70;;
57593;SDS011;43423;46.510;6.686;2023-03-01T14:29:39;47.67;;;15.93;;
57593;SDS011;43423;46.510;6.686;2023-03-01T14:32:09;39.55;;;16.17;;
57593;SDS011;43423;46.510;6.686;2023-03-01T14:34:50;37.17;;;15.32;;
57593;SDS011;43423;46.510;6.686;2023-03-01T14:39:53;43.08;;;16.45;;
57593;SDS011;43423;46.510;6.686;2023-03-01T14:42:20;43.72;;;16.60;;
57593;SDS011;43423;46.510;6.686;2023-03-01T14:44:50;43.63;;;16.15;;
57593;SDS011;43423;46.510;6.686;2023-03-01T14:47:38;42.30;;;16.48;;
57593;SDS011;43423;46.510;6.686;2023-03-01T14:52:57;48.97;;;16.83;;
57593;SDS011;43423;46.510;6.686;2023-03-01T14:55:27;43.10;;;16.02;;
57593;SDS011;43423;46.510;6.686;2023-03-01T14:57:57;44.03;;;15.13;;
57593;SDS011;43423;46.510;6.686;2023-03-01T15:00:27;48.55;;;18.10;;
57593;SDS011;43423;46.510;6.686;2023-03-01T15:02:55;48.42;;;17.58;;
57593;SDS011;43423;46.510;6.686;2023-03-01T15:05:31;37.88;;;16.20;;
57593;SDS011;43423;46.510;6.686;2023-03-01T15:07:59;43.15;;;16.23;;
57593;SDS011;43423;46.510;6.686;2023-03-01T15:10:28;41.88;;;15.18;;
57593;SDS011;43423;46.510;6.686;2023-03-01T15:12:56;44.88;;;16.27;;
57593;SDS011;43423;46.510;6.686;2023-03-01T15:17:53;45.53;;;15.85;;
57593;SDS011;43423;46.510;6.686;2023-03-01T15:20:23;45.58;;;16.25;;
57593;SDS011;43423;46.510;6.686;2023-03-01T15:22:53;41.97;;;16.85;;
57593;SDS011;43423;46.510;6.686;2023-03-01T15:25:23;48.58;;;17.02;;
57593;SDS011;43423;46.510;6.686;2023-03-01T15:27:52;39.50;;;16.35;;
57593;SDS011;43423;46.510;6.686;2023-03-01T15:30:23;45.60;;;16.67;;
57593;SDS011;43423;46.510;6.686;2023-03-01T15:35:59;46.35;;;17.10;;
57593;SDS011;43423;46.510;6.686;2023-03-01T15:41:24;41.38;;;15.85;;
57593;SDS011;43423;46.510;6.686;2023-03-01T15:46:51;49.17;;;17.15;;
57593;SDS011;43423;46.510;6.686;2023-03-01T15:51:58;52.13;;;17.73;;
57593;SDS011;43423;46.510;6.686;2023-03-01T15:54:24;48.47;;;18.15;;
57593;SDS011;43423;46.510;6.686;2023-03-01T15:56:52;47.95;;;18.10;;
57593;SDS011;43423;46.510;6.686;2023-03-01T15:59:17;50.42;;;17.33;;
57593;SDS011;43423;46.510;6.686;2023-03-01T16:01:44;57.60;;;20.00;;
57593;SDS011;43423;46.510;6.686;2023-03-01T16:04:11;57.20;;;18.65;;
57593;SDS011;43423;46.510;6.686;2023-03-01T16:06:41;55.92;;;19.00;;
57593;SDS011;43423;46.510;6.686;2023-03-01T16:09:07;51.45;;;17.25;;
57593;SDS011;43423;46.510;6.686;2023-03-01T16:11:33;47.13;;;16.65;;
57593;SDS011;43423;46.510;6.686;2023-03-01T16:14:02;52.35;;;19.00;;
57593;SDS011;43423;46.510;6.686;2023-03-01T16:16:27;45.88;;;17.45;;
57593;SDS011;43423;46.510;6.686;2023-03-01T16:18:53;56.67;;;20.02;;
57593;SDS011;43423;46.510;6.686;2023-03-01T16:21:21;52.75;;;17.75;;
57593;SDS011;43423;46.510;6.686;2023-03-01T16:23:50;54.33;;;20.35;;